Time;durP1;ratioP1;P1;durP2;ratioP2;P2;SDS_P1;SDS_P2;PMS_P1;PMS_P2;Temp;Humidity;BMP_temperature;BMP_pressure;BME280_temperature;BME280_humidity;BME280_pressure;Samples;Min_cycle;Max_cycle;Signal;HPM_P1;HPM_P2
2022/11/09 00:02:28;;;;;;;81.40;28.75;;;;;;;;;;6282865;28;20048;-60
2022/11/09 00:05:28;;;;;;;95.45;30.33;;;;;;;;;;6281555;28;20446;-61
2022/11/09 00:08:29;;;;;;;92.85;30.70;;;;;;;;;;6282810;28;20067;-59
2022/11/09 00:11:30;;;;;;;95.30;32.38;;;;;;;;;;6281375;28;20051;-61
2022/11/09 00:14:30;;;;;;;83.88;30.30;;;;;;;;;;6289675;28;20502;-60
2022/11/09 00:17:31;;;;;;;95.40;30.48;;;;;;;;;;6281642;28;20060;-59
2022/11/09 00:20:32;;;;;;;98.25;34.22;;;;;;;;;;6280558;28;20046;-62
2022/11/09 00:23:32;;;;;;;99.18;33.42;;;;;;;;;;6291184;28;20455;-63
2022/11/09 00:26:33;;;;;;;93.95;30.08;;;;;;;;;;6291032;28;20049;-60
2022/11/09 00:29:33;;;;;;;87.63;30.60;;;;;;;;;;6289376;28;20052;-61
2022/11/09 00:32:34;;;;;;;87.88;30.15;;;;;;;;;;6287428;28;20048;-63
2022/11/09 00:35:37;;;;;;;90.22;30.83;;;;;;;;;;6282125;28;20047;-65
2022/11/09 00:38:39;;;;;;;92.82;31.13;;;;;;;;;;6279222;28;20199;-63
2022/11/09 00:41:39;;;;;;;97.90;34.80;;;;;;;;;;6280050;28;20063;-60
2022/11/09 00:44:40;;;;;;;99.47;31.25;;;;;;;;;;6288716;28;20048;-61
2022/11/09 00:47:41;;;;;;;96.18;35.67;;;;;;;;;;6290643;28;20056;-64
2022/11/09 00:50:47;;;;;;;95.55;36.97;;;;;;;;;;6286227;28;20067;-63
2022/11/09 00:53:48;;;;;;;93.95;31.67;;;;;;;;;;6282113;28;20049;-60
2022/11/09 00:56:48;;;;;;;107.05;37.88;;;;;;;;;;6289843;28;20055;-63
2022/11/09 00:59:50;;;;;;;106.55;35.38;;;;;;;;;;6280551;28;20041;-60
2022/11/09 01:02:51;;;;;;;;;;;;;;;;;;6283114;28;20049;-59
2022/11/09 01:05:52;;;;;;;99.97;33.22;;;;;;;;;;6285068;28;19927;-63
2022/11/09 01:08:53;;;;;;;106.20;33.15;;;;;;;;;;6286328;28;20509;-62
2022/11/09 01:11:54;;;;;;;109.75;39.10;;;;;;;;;;6290599;28;20403;-65
2022/11/09 01:14:54;;;;;;;102.40;35.05;;;;;;;;;;6284626;28;20063;-62
2022/11/09 01:17:55;;;;;;;112.85;40.22;;;;;;;;;;6290591;28;20060;-61
2022/11/09 01:20:56;;;;;;;124.75;49.00;;;;;;;;;;6291402;28;20497;-58
2022/11/09 01:23:57;;;;;;;103.95;38.28;;;;;;;;;;6290956;28;20040;-62
2022/11/09 01:26:57;;;;;;;111.30;41.05;;;;;;;;;;6290296;28;20045;-63
2022/11/09 01:29:58;;;;;;;106.13;40.13;;;;;;;;;;6291255;28;20454;-60
2022/11/09 01:33:02;;;;;;;105.88;39.05;;;;;;;;;;6289503;28;20434;-60
2022/11/09 01:36:09;;;;;;;104.90;36.80;;;;;;;;;;6289484;28;20385;-60
2022/11/09 01:39:10;;;;;;;98.72;35.13;;;;;;;;;;6286688;28;20044;-63
2022/11/09 01:42:10;;;;;;;106.90;36.63;;;;;;;;;;6289972;28;20052;-60
2022/11/09 01:45:17;;;;;;;104.93;37.08;;;;;;;;;;6290467;28;20146;-60
2022/11/09 01:48:24;;;;;;;120.63;42.80;;;;;;;;;;6290571;28;20047;-60
2022/11/09 01:51:36;;;;;;;115.15;43.05;;;;;;;;;;6290466;28;20044;-60
2022/11/09 01:54:44;;;;;;;111.82;42.72;;;;;;;;;;6289860;28;20045;-60
2022/11/09 01:58:01;;;;;;;126.88;43.28;;;;;;;;;;6292009;28;20091;-65
2022/11/09 02:01:02;;;;;;;126.25;42.63;;;;;;;;;;6295041;28;20072;-60
2022/11/09 02:04:23;;;;;;;115.90;40.80;;;;;;;;;;6294252;28;20050;-60
2022/11/09 02:07:24;;;;;;;126.38;43.13;;;;;;;;;;6294343;28;20037;-63
2022/11/09 02:10:29;;;;;;;117.03;43.30;;;;;;;;;;6293406;28;20139;-61
2022/11/09 02:13:31;;;;;;;132.20;47.63;;;;;;;;;;6293853;28;20056;-60
2022/11/09 02:16:33;;;;;;;;;;;;;;;;;;6294616;28;20041;-60
2022/11/09 02:19:33;;;;;;;128.80;45.15;;;;;;;;;;6294317;28;19931;-60
2022/11/09 02:22:34;;;;;;;122.60;42.83;;;;;;;;;;6293567;28;20053;-60
2022/11/09 02:25:35;;;;;;;149.52;55.28;;;;;;;;;;6293725;28;20070;-60
2022/11/09 02:28:38;;;;;;;132.05;49.33;;;;;;;;;;6289797;28;20396;-64
2022/11/09 02:31:42;;;;;;;123.40;45.47;;;;;;;;;;6267259;28;20400;-62
2022/11/09 02:34:42;;;;;;;133.55;50.08;;;;;;;;;;6268759;28;20048;-60
2022/11/09 02:37:48;;;;;;;146.02;51.75;;;;;;;;;;6268304;28;20053;-60
2022/11/09 02:40:51;;;;;;;141.20;54.13;;;;;;;;;;6280552;28;20144;-60
2022/11/09 02:43:53;;;;;;;132.77;50.78;;;;;;;;;;6276723;28;20098;-59
2022/11/09 02:46:54;;;;;;;128.73;48.42;;;;;;;;;;6288231;28;20126;-61
2022/11/09 02:49:56;;;;;;;116.97;45.50;;;;;;;;;;6281530;28;20052;-61
2022/11/09 02:52:57;;;;;;;130.50;44.78;;;;;;;;;;6269094;28;20049;-60
2022/11/09 02:55:57;;;;;;;134.10;46.95;;;;;;;;;;6274556;28;20052;-60
2022/11/09 02:58:58;;;;;;;135.10;48.78;;;;;;;;;;6290930;28;20503;-60
2022/11/09 03:01:59;;;;;;;140.73;54.47;;;;;;;;;;6271501;28;20166;-59
2022/11/09 03:04:59;;;;;;;145.00;54.28;;;;;;;;;;6269617;28;20043;-60
2022/11/09 03:08:01;;;;;;;127.65;48.63;;;;;;;;;;6269111;28;20072;-60
2022/11/09 03:11:02;;;;;;;111.05;42.80;;;;;;;;;;6267461;28;20063;-60
2022/11/09 03:14:03;;;;;;;123.32;45.40;;;;;;;;;;6269548;28;20080;-60
2022/11/09 03:17:04;;;;;;;131.90;49.78;;;;;;;;;;6268700;28;20049;-61
2022/11/09 03:20:05;;;;;;;126.35;47.88;;;;;;;;;;6271824;28;20122;-61
2022/11/09 03:23:06;;;;;;;141.87;53.27;;;;;;;;;;6267107;28;20060;-59
2022/11/09 03:26:06;;;;;;;140.23;51.53;;;;;;;;;;6266405;28;20041;-62
2022/11/09 03:29:07;;;;;;;134.10;51.65;;;;;;;;;;6268010;28;20491;-61
2022/11/09 03:32:08;;;;;;;150.35;55.35;;;;;;;;;;6266143;28;20502;-60
2022/11/09 03:35:09;;;;;;;137.93;52.92;;;;;;;;;;6268271;28;20118;-60
2022/11/09 03:38:10;;;;;;;132.20;49.15;;;;;;;;;;6267383;28;20049;-60
2022/11/09 03:41:10;;;;;;;130.48;50.10;;;;;;;;;;6265829;28;20047;-63
2022/11/09 03:44:11;;;;;;;127.68;48.20;;;;;;;;;;6270938;28;20087;-60
2022/11/09 03:47:11;;;;;;;134.98;49.38;;;;;;;;;;6272415;28;20479;-60
2022/11/09 03:50:14;;;;;;;120.97;46.40;;;;;;;;;;6269247;28;20051;-60
2022/11/09 03:53:15;;;;;;;134.13;47.70;;;;;;;;;;6287253;28;20139;-61
2022/11/09 03:56:16;;;;;;;119.85;45.42;;;;;;;;;;6274281;28;20047;-60
2022/11/09 03:59:17;;;;;;;129.90;47.67;;;;;;;;;;6266699;28;20041;-61
2022/11/09 04:02:18;;;;;;;155.15;61.13;;;;;;;;;;6264984;28;20046;-62
2022/11/09 04:05:19;;;;;;;124.35;47.80;;;;;;;;;;6267159;28;20076;-59
2022/11/09 04:08:19;;;;;;;143.57;52.88;;;;;;;;;;6272891;28;20045;-59
2022/11/09 04:11:20;;;;;;;137.00;49.70;;;;;;;;;;6292345;28;20068;-64
2022/11/09 04:14:20;;;;;;;120.53;47.63;;;;;;;;;;6268759;28;20044;-60
2022/11/09 04:17:21;;;;;;;126.50;46.70;;;;;;;;;;6289862;28;20151;-60
2022/11/09 04:20:21;;;;;;;118.72;44.33;;;;;;;;;;6268627;28;20585;-64
2022/11/09 04:23:22;;;;;;;166.82;55.13;;;;;;;;;;6291235;28;20044;-61
2022/11/09 04:26:23;;;;;;;187.43;62.65;;;;;;;;;;6280194;28;21120;-61
2022/11/09 04:29:23;;;;;;;157.40;57.97;;;;;;;;;;6281601;28;20055;-60
2022/11/09 04:32:24;;;;;;;171.93;62.80;;;;;;;;;;6265199;28;20064;-60
2022/11/09 04:35:27;;;;;;;150.10;55.53;;;;;;;;;;6264790;28;20049;-60
2022/11/09 04:38:27;;;;;;;170.40;60.78;;;;;;;;;;6266844;28;20190;-61
2022/11/09 04:41:28;;;;;;;165.80;60.10;;;;;;;;;;6266007;28;20774;-60
2022/11/09 04:44:28;;;;;;;163.88;62.53;;;;;;;;;;6290594;28;20424;-60
2022/11/09 04:47:29;;;;;;;149.55;58.13;;;;;;;;;;6269751;28;20087;-61
2022/11/09 04:50:30;;;;;;;154.48;59.72;;;;;;;;;;6270464;28;20048;-61
2022/11/09 04:53:31;;;;;;;171.32;64.25;;;;;;;;;;6279901;28;20049;-62
2022/11/09 04:56:32;;;;;;;158.13;60.65;;;;;;;;;;6285724;28;20480;-60
2022/11/09 04:59:32;;;;;;;173.52;63.92;;;;;;;;;;6278857;28;20094;-60
2022/11/09 05:02:33;;;;;;;160.35;60.17;;;;;;;;;;6267740;28;20106;-62
2022/11/09 05:05:36;;;;;;;152.50;59.45;;;;;;;;;;6265572;28;20210;-60
2022/11/09 05:08:36;;;;;;;150.45;55.92;;;;;;;;;;6264637;28;22023;-60
2022/11/09 05:11:37;;;;;;;141.15;53.10;;;;;;;;;;6262371;28;20044;-60
2022/11/09 05:14:37;;;;;;;153.57;60.45;;;;;;;;;;6267309;28;20049;-60
2022/11/09 05:17:38;;;;;;;155.32;56.42;;;;;;;;;;6263517;28;20500;-62
2022/11/09 05:20:38;;;;;;;156.18;58.85;;;;;;;;;;6281099;28;20071;-62
2022/11/09 05:23:57;;;;;;;135.73;53.75;;;;;;;;;;6266036;28;20045;-64
2022/11/09 05:26:58;;;;;;;135.82;51.88;;;;;;;;;;6264456;28;20037;-61
2022/11/09 05:29:59;;;;;;;144.77;53.80;;;;;;;;;;6275745;28;20059;-60
2022/11/09 05:32:59;;;;;;;136.52;54.33;;;;;;;;;;6270074;28;20065;-62
2022/11/09 05:36:00;;;;;;;163.80;59.58;;;;;;;;;;6267709;28;20049;-64
2022/11/09 05:39:01;;;;;;;153.07;56.65;;;;;;;;;;6263945;28;20045;-60
2022/11/09 05:42:01;;;;;;;144.95;57.00;;;;;;;;;;6270777;28;20040;-60
2022/11/09 05:45:02;;;;;;;153.27;58.35;;;;;;;;;;6268489;28;20496;-63
2022/11/09 05:48:03;;;;;;;158.32;60.25;;;;;;;;;;6284411;28;20098;-64
2022/11/09 05:51:05;;;;;;;145.55;56.90;;;;;;;;;;6267575;28;20110;-60
2022/11/09 05:54:07;;;;;;;148.90;58.13;;;;;;;;;;6267869;28;20057;-62
2022/11/09 05:57:07;;;;;;;157.00;56.25;;;;;;;;;;6266165;28;20406;-60
2022/11/09 06:00:09;;;;;;;147.85;56.80;;;;;;;;;;6265125;28;20052;-60
2022/11/09 06:03:10;;;;;;;153.80;58.83;;;;;;;;;;6266470;28;20060;-60
2022/11/09 06:06:14;;;;;;;133.88;54.67;;;;;;;;;;6267474;28;20051;-60
2022/11/09 06:09:14;;;;;;;160.50;63.08;;;;;;;;;;6267580;28;20037;-61
2022/11/09 06:12:15;;;;;;;154.85;60.60;;;;;;;;;;6270248;28;20045;-60
2022/11/09 06:15:15;;;;;;;138.70;53.90;;;;;;;;;;6276642;28;20483;-60
2022/11/09 06:18:16;;;;;;;141.30;54.03;;;;;;;;;;6272487;28;20108;-60
2022/11/09 06:21:17;;;;;;;140.85;54.42;;;;;;;;;;6281104;28;20041;-60
2022/11/09 06:24:18;;;;;;;131.70;49.90;;;;;;;;;;6273394;28;20094;-60
2022/11/09 06:27:18;;;;;;;124.35;47.03;;;;;;;;;;6283038;28;20045;-60
2022/11/09 06:30:19;;;;;;;149.88;58.15;;;;;;;;;;6269550;28;20137;-60
2022/11/09 06:33:19;;;;;;;140.30;54.60;;;;;;;;;;6272993;28;20097;-60
2022/11/09 06:36:20;;;;;;;142.00;54.40;;;;;;;;;;6269272;28;20056;-60
2022/11/09 06:39:21;;;;;;;134.82;53.45;;;;;;;;;;6269998;28;20037;-60
2022/11/09 06:42:21;;;;;;;126.85;51.55;;;;;;;;;;6289813;28;20044;-60
2022/11/09 06:45:22;;;;;;;140.27;53.08;;;;;;;;;;6288485;28;20045;-61
2022/11/09 06:48:23;;;;;;;152.63;54.40;;;;;;;;;;6292376;28;20036;-60
2022/11/09 06:51:23;;;;;;;139.10;55.92;;;;;;;;;;6290161;28;20052;-60
2022/11/09 06:54:24;;;;;;;148.27;57.05;;;;;;;;;;6288791;28;20473;-61
2022/11/09 06:57:29;;;;;;;146.32;54.75;;;;;;;;;;6293177;28;20531;-60
2022/11/09 07:00:30;;;;;;;149.88;55.83;;;;;;;;;;6289177;28;20056;-60
2022/11/09 07:03:31;;;;;;;148.13;56.30;;;;;;;;;;6291380;28;20111;-60
2022/11/09 07:06:31;;;;;;;161.77;59.30;;;;;;;;;;6291090;28;20508;-60
2022/11/09 07:09:32;;;;;;;160.95;59.58;;;;;;;;;;6288645;28;20119;-60
2022/11/09 07:12:34;;;;;;;161.93;60.85;;;;;;;;;;6293034;28;20746;-60
2022/11/09 07:15:36;;;;;;;150.95;55.50;;;;;;;;;;6288499;28;20044;-60
2022/11/09 07:18:36;;;;;;;180.02;66.43;;;;;;;;;;6289342;28;20053;-59
2022/11/09 07:21:37;;;;;;;207.23;75.03;;;;;;;;;;6291942;28;20040;-60
2022/11/09 07:24:38;;;;;;;191.88;69.70;;;;;;;;;;6279914;28;20685;-63
2022/11/09 07:27:38;;;;;;;232.75;88.88;;;;;;;;;;6270048;28;20041;-60
2022/11/09 07:30:39;;;;;;;276.52;100.10;;;;;;;;;;6268572;28;20086;-60
2022/11/09 07:33:39;;;;;;;272.52;94.50;;;;;;;;;;6273314;28;20506;-59
2022/11/09 07:36:40;;;;;;;274.65;97.32;;;;;;;;;;6268853;28;20040;-60
2022/11/09 07:39:40;;;;;;;243.50;85.63;;;;;;;;;;6262010;28;20052;-60
2022/11/09 07:42:41;;;;;;;219.82;82.15;;;;;;;;;;6266862;28;20068;-60
2022/11/09 07:45:42;;;;;;;219.68;81.90;;;;;;;;;;6266518;28;20040;-60
2022/11/09 07:48:42;;;;;;;178.40;70.88;;;;;;;;;;6265483;28;20495;-61
2022/11/09 07:51:43;;;;;;;185.13;73.13;;;;;;;;;;6265288;28;20049;-60
2022/11/09 07:54:44;;;;;;;189.38;70.65;;;;;;;;;;6268349;28;20079;-60
2022/11/09 07:57:45;;;;;;;178.25;68.07;;;;;;;;;;6264593;28;20048;-60
2022/11/09 08:00:46;;;;;;;194.10;74.53;;;;;;;;;;6272742;28;20071;-60
2022/11/09 08:03:47;;;;;;;183.20;67.88;;;;;;;;;;6285359;28;20052;-60
2022/11/09 08:06:50;;;;;;;177.02;67.88;;;;;;;;;;6267930;28;20052;-59
2022/11/09 08:09:51;;;;;;;166.77;65.45;;;;;;;;;;6284581;28;20110;-59
2022/11/09 08:12:54;;;;;;;175.30;69.55;;;;;;;;;;6289925;28;20056;-61
2022/11/09 08:15:54;;;;;;;187.95;72.72;;;;;;;;;;6287528;28;20514;-60
2022/11/09 08:18:55;;;;;;;176.75;69.38;;;;;;;;;;6287872;28;20071;-60
2022/11/09 08:21:56;;;;;;;176.80;69.93;;;;;;;;;;6291133;28;20060;-60
2022/11/09 08:24:57;;;;;;;182.25;69.78;;;;;;;;;;6280391;28;20457;-59
2022/11/09 08:27:57;;;;;;;164.85;62.00;;;;;;;;;;6266028;28;20049;-60
2022/11/09 08:31:01;;;;;;;154.35;59.15;;;;;;;;;;6267641;28;20053;-59
2022/11/09 08:34:02;;;;;;;152.95;59.33;;;;;;;;;;6284322;28;20082;-60
2022/11/09 08:37:04;;;;;;;150.75;57.95;;;;;;;;;;6281918;28;20055;-60
2022/11/09 08:40:05;;;;;;;124.43;47.63;;;;;;;;;;6266725;28;20048;-60
2022/11/09 08:43:09;;;;;;;116.55;42.90;;;;;;;;;;6268024;28;21011;-59
2022/11/09 08:46:09;;;;;;;100.90;34.10;;;;;;;;;;6266680;28;20048;-59
2022/11/09 08:49:10;;;;;;;88.90;30.98;;;;;;;;;;6265145;28;20049;-59
2022/11/09 08:52:10;;;;;;;99.82;34.38;;;;;;;;;;6267081;28;20415;-60
2022/11/09 08:55:11;;;;;;;98.57;34.42;;;;;;;;;;6263627;28;20041;-60
2022/11/09 08:58:11;;;;;;;106.88;39.15;;;;;;;;;;6265164;28;20049;-60
2022/11/09 09:01:12;;;;;;;128.90;46.17;;;;;;;;;;6261156;28;20052;-60
2022/11/09 09:04:13;;;;;;;130.57;45.97;;;;;;;;;;6262477;28;20892;-60
2022/11/09 09:07:13;;;;;;;120.10;44.85;;;;;;;;;;6269104;28;20043;-60
2022/11/09 09:10:14;;;;;;;140.23;52.92;;;;;;;;;;6269022;28;20041;-63
2022/11/09 09:13:14;;;;;;;119.47;45.55;;;;;;;;;;6293659;28;20052;-60
2022/11/09 09:16:15;;;;;;;137.65;54.95;;;;;;;;;;6273587;28;20044;-60
2022/11/09 09:19:16;;;;;;;133.05;48.85;;;;;;;;;;6279109;28;22506;-62
2022/11/09 09:22:16;;;;;;;130.15;46.72;;;;;;;;;;6289597;28;20052;-59
2022/11/09 09:25:17;;;;;;;124.07;45.50;;;;;;;;;;6288250;28;20579;-60
2022/11/09 09:28:17;;;;;;;123.43;45.78;;;;;;;;;;6294401;28;20040;-59
2022/11/09 09:31:18;;;;;;;124.47;44.13;;;;;;;;;;6292250;28;20053;-60
2022/11/09 09:34:19;;;;;;;113.22;40.88;;;;;;;;;;6291391;28;20060;-60
2022/11/09 09:37:20;;;;;;;117.47;41.67;;;;;;;;;;6295019;28;20048;-60
2022/11/09 09:40:28;;;;;;;110.15;44.55;;;;;;;;;;6290675;28;20407;-60
2022/11/09 09:43:40;;;;;;;107.63;41.70;;;;;;;;;;6277048;28;20055;-60
2022/11/09 09:46:47;;;;;;;96.15;36.65;;;;;;;;;;6287693;28;20431;-60
2022/11/09 09:49:58;;;;;;;95.30;36.55;;;;;;;;;;6290294;28;20052;-60
2022/11/09 09:53:03;;;;;;;87.82;32.40;;;;;;;;;;6286089;28;20070;-60
2022/11/09 09:56:11;;;;;;;85.97;33.67;;;;;;;;;;6270000;28;20063;-59
2022/11/09 09:59:19;;;;;;;83.97;30.25;;;;;;;;;;6268688;28;20081;-60
2022/11/09 10:02:21;;;;;;;83.20;30.02;;;;;;;;;;6267907;28;20106;-60
2022/11/09 10:05:35;;;;;;;;;;;;;;;;;;6271984;28;20044;-60
2022/11/09 10:09:07;;;;;;;72.60;27.33;;;;;;;;;;6278895;28;19954;-60
2022/11/09 10:12:26;;;;;;;71.70;25.58;;;;;;;;;;6269921;28;20562;-58
2022/11/09 10:15:42;;;;;;;73.28;27.77;;;;;;;;;;6265105;28;20737;-60
2022/11/09 10:19:10;;;;;;;85.05;30.90;;;;;;;;;;6265577;28;20695;-61
2022/11/09 10:22:22;;;;;;;62.90;23.77;;;;;;;;;;6267595;28;20055;-60
2022/11/09 10:25:25;;;;;;;60.00;21.85;;;;;;;;;;6265696;28;20052;-60
2022/11/09 10:28:28;;;;;;;58.42;21.65;;;;;;;;;;6266115;28;20051;-58
2022/11/09 10:31:31;;;;;;;53.80;19.02;;;;;;;;;;6264999;28;20057;-58
2022/11/09 10:34:54;;;;;;;47.08;18.15;;;;;;;;;;6268207;28;20048;-61
2022/11/09 10:37:55;;;;;;;53.80;17.60;;;;;;;;;;6266096;28;20037;-58
2022/11/09 10:41:03;;;;;;;44.97;16.95;;;;;;;;;;6267182;28;20514;-58
2022/11/09 10:44:03;;;;;;;51.03;19.02;;;;;;;;;;6266206;28;20142;-59
2022/11/09 10:47:04;;;;;;;45.40;15.77;;;;;;;;;;6265096;28;20052;-59
2022/11/09 10:50:07;;;;;;;42.20;16.70;;;;;;;;;;6266758;28;20052;-61
2022/11/09 10:53:13;;;;;;;44.13;16.92;;;;;;;;;;6269143;28;20039;-61
2022/11/09 10:56:19;;;;;;;42.90;15.18;;;;;;;;;;6267313;28;20064;-59
2022/11/09 10:59:42;;;;;;;46.10;16.83;;;;;;;;;;6266539;28;20047;-61
2022/11/09 11:02:44;;;;;;;40.60;14.65;;;;;;;;;;6268264;28;20040;-58
2022/11/09 11:05:57;;;;;;;44.90;16.10;;;;;;;;;;6265811;28;20048;-58
2022/11/09 11:08:57;;;;;;;42.90;16.13;;;;;;;;;;6267184;28;20549;-58
2022/11/09 11:12:15;;;;;;;45.13;15.52;;;;;;;;;;6267371;28;20094;-60
2022/11/09 11:15:21;;;;;;;52.20;16.48;;;;;;;;;;6263150;28;20044;-60
2022/11/09 11:18:24;;;;;;;42.15;16.23;;;;;;;;;;6266085;28;20077;-59
2022/11/09 11:21:26;;;;;;;39.28;15.93;;;;;;;;;;6263640;28;20080;-59
2022/11/09 11:24:40;;;;;;;41.10;15.70;;;;;;;;;;6266917;28;20106;-59
2022/11/09 11:27:59;;;;;;;40.20;15.05;;;;;;;;;;6267508;28;20044;-59
2022/11/09 11:31:01;;;;;;;40.05;14.60;;;;;;;;;;6281928;28;20037;-59
2022/11/09 11:34:02;;;;;;;39.92;16.55;;;;;;;;;;6287398;28;20524;-59
2022/11/09 11:37:28;;;;;;;39.17;15.20;;;;;;;;;;6292139;28;20521;-59
2022/11/09 11:40:33;;;;;;;44.22;16.45;;;;;;;;;;6288394;28;20592;-60
2022/11/09 11:44:23;;;;;;;43.00;15.05;;;;;;;;;;6289280;28;20464;-60
2022/11/09 11:47:32;;;;;;;39.63;14.30;;;;;;;;;;6291168;28;20090;-59
2022/11/09 11:50:54;;;;;;;38.15;14.60;;;;;;;;;;6290231;28;20052;-59
2022/11/09 11:54:12;;;;;;;41.15;16.35;;;;;;;;;;6288778;28;20075;-59
2022/11/09 11:57:15;;;;;;;43.05;16.15;;;;;;;;;;6292018;28;20414;-59
2022/11/09 12:00:18;;;;;;;42.17;16.20;;;;;;;;;;6288832;28;20041;-59
2022/11/09 12:03:31;;;;;;;43.47;16.50;;;;;;;;;;6290951;28;20048;-59
2022/11/09 12:06:39;;;;;;;42.70;15.90;;;;;;;;;;6288361;28;20161;-59
2022/11/09 12:09:49;;;;;;;38.83;14.98;;;;;;;;;;6288317;28;20093;-59
2022/11/09 12:13:13;;;;;;;41.90;16.92;;;;;;;;;;6291042;28;20542;-59
2022/11/09 12:16:39;;;;;;;40.63;16.05;;;;;;;;;;6280103;28;20047;-59
2022/11/09 12:20:01;;;;;;;44.50;17.13;;;;;;;;;;6287608;28;20488;-59
2022/11/09 12:23:16;;;;;;;38.10;16.50;;;;;;;;;;6292211;28;20050;-59
2022/11/09 12:26:41;;;;;;;46.78;17.63;;;;;;;;;;6288422;28;20051;-59
2022/11/09 12:30:14;;;;;;;43.63;17.50;;;;;;;;;;6286903;28;20097;-59
2022/11/09 12:33:18;;;;;;;;;;;;;;;;;;6262808;28;20467;-59
2022/11/09 12:36:30;;;;;;;46.15;16.55;;;;;;;;;;6263830;28;19931;-59
2022/11/09 12:39:34;;;;;;;43.33;15.38;;;;;;;;;;6264587;28;20077;-60
2022/11/09 12:42:40;;;;;;;46.55;17.92;;;;;;;;;;6262958;28;20048;-59
2022/11/09 12:45:43;;;;;;;45.08;17.38;;;;;;;;;;6262522;28;20053;-60
2022/11/09 12:48:45;;;;;;;40.78;15.90;;;;;;;;;;6262072;28;20045;-59
2022/11/09 12:51:46;;;;;;;45.67;17.55;;;;;;;;;;6264869;28;20080;-59
2022/11/09 12:54:48;;;;;;;42.33;16.55;;;;;;;;;;6262633;28;20052;-60
2022/11/09 12:57:49;;;;;;;40.55;16.45;;;;;;;;;;6282700;28;20049;-59
2022/11/09 13:00:53;;;;;;;40.03;16.23;;;;;;;;;;6265527;28;20045;-59
2022/11/09 13:03:56;;;;;;;47.75;17.35;;;;;;;;;;6278184;28;20064;-59
2022/11/09 13:07:06;;;;;;;43.28;16.67;;;;;;;;;;6285164;28;20041;-59
2022/11/09 13:10:24;;;;;;;44.50;17.05;;;;;;;;;;6266510;28;20041;-59
2022/11/09 13:13:24;;;;;;;45.70;17.20;;;;;;;;;;6263116;28;20041;-59
2022/11/09 13:16:35;;;;;;;44.35;16.38;;;;;;;;;;6265818;28;20048;-59
2022/11/09 13:19:38;;;;;;;45.17;17.38;;;;;;;;;;6262048;28;20041;-59
2022/11/09 13:22:39;;;;;;;46.22;17.58;;;;;;;;;;6261693;28;20420;-59
2022/11/09 13:25:49;;;;;;;48.38;18.77;;;;;;;;;;6264140;28;20506;-60
2022/11/09 13:29:13;;;;;;;44.75;16.75;;;;;;;;;;6263087;28;20409;-59
2022/11/09 13:32:20;;;;;;;46.00;17.92;;;;;;;;;;6269963;28;20049;-59
2022/11/09 13:35:38;;;;;;;44.03;17.00;;;;;;;;;;6266262;28;20492;-60
2022/11/09 13:38:40;;;;;;;46.55;17.83;;;;;;;;;;6266200;28;20045;-60
2022/11/09 13:41:41;;;;;;;59.53;17.92;;;;;;;;;;6263157;28;20049;-59
2022/11/09 13:44:42;;;;;;;46.58;18.60;;;;;;;;;;6264459;28;20139;-60
2022/11/09 13:47:49;;;;;;;46.85;17.48;;;;;;;;;;6263907;28;20075;-59
2022/11/09 13:50:53;;;;;;;47.28;18.27;;;;;;;;;;6264895;28;20045;-60
2022/11/09 13:53:59;;;;;;;43.00;16.90;;;;;;;;;;6265832;28;20520;-59
2022/11/09 13:57:03;;;;;;;46.92;18.02;;;;;;;;;;6268749;28;20061;-59
2022/11/09 14:00:05;;;;;;;46.05;17.58;;;;;;;;;;6268448;28;20055;-59
2022/11/09 14:03:19;;;;;;;44.10;18.20;;;;;;;;;;6265700;28;20037;-60
2022/11/09 14:06:20;;;;;;;51.72;18.88;;;;;;;;;;6265935;28;20049;-60
2022/11/09 14:09:20;;;;;;;47.28;18.35;;;;;;;;;;6262999;28;20075;-59
2022/11/09 14:12:40;;;;;;;45.30;17.25;;;;;;;;;;6259224;28;20037;-59
2022/11/09 14:15:41;;;;;;;47.33;17.77;;;;;;;;;;6253561;28;20049;-59
2022/11/09 14:18:47;;;;;;;46.95;18.65;;;;;;;;;;6250811;28;20467;-59
2022/11/09 14:21:51;;;;;;;45.75;18.70;;;;;;;;;;6251586;28;20059;-61
2022/11/09 14:24:52;;;;;;;50.67;20.05;;;;;;;;;;6248778;28;20053;-59
2022/11/09 14:27:57;;;;;;;47.00;18.70;;;;;;;;;;6250373;28;22192;-60
2022/11/09 14:30:57;;;;;;;48.35;17.98;;;;;;;;;;6249743;28;20720;-59
2022/11/09 14:34:15;;;;;;;48.50;19.90;;;;;;;;;;6248358;28;20092;-59
2022/11/09 14:37:16;;;;;;;47.10;19.52;;;;;;;;;;6254193;28;20067;-60
2022/11/09 14:40:21;;;;;;;44.87;18.43;;;;;;;;;;6255044;28;20095;-59
2022/11/09 14:43:43;;;;;;;54.08;19.65;;;;;;;;;;6251501;28;20301;-61
2022/11/09 14:46:50;;;;;;;;;;;;;;;;;;6250583;28;20045;-60
2022/11/09 14:49:51;;;;;;;54.28;19.92;;;;;;;;;;6247873;28;20345;-60
2022/11/09 14:52:54;;;;;;;50.90;19.33;;;;;;;;;;6246954;28;20091;-59
2022/11/09 14:55:58;;;;;;;55.67;22.77;;;;;;;;;;6253443;28;20083;-59
2022/11/09 14:59:03;;;;;;;50.60;21.27;;;;;;;;;;6252831;28;20080;-59
2022/11/09 15:02:06;;;;;;;52.97;21.80;;;;;;;;;;6249136;28;20037;-60
2022/11/09 15:05:31;;;;;;;58.83;21.73;;;;;;;;;;6252116;28;20179;-60
2022/11/09 15:08:33;;;;;;;57.05;22.13;;;;;;;;;;6261319;28;20052;-59
2022/11/09 15:11:37;;;;;;;52.40;22.02;;;;;;;;;;6257353;28;21260;-61
2022/11/09 15:14:37;;;;;;;61.10;22.75;;;;;;;;;;6248001;28;20099;-59
2022/11/09 15:17:44;;;;;;;52.95;22.17;;;;;;;;;;6259877;28;20066;-59
2022/11/09 15:20:45;;;;;;;58.67;23.25;;;;;;;;;;6257604;28;20051;-59
2022/11/09 15:23:47;;;;;;;60.75;23.02;;;;;;;;;;6248367;28;20072;-59
2022/11/09 15:26:50;;;;;;;61.10;25.60;;;;;;;;;;6250076;28;20049;-60
2022/11/09 15:29:51;;;;;;;65.10;24.85;;;;;;;;;;6251569;28;20496;-60
2022/11/09 15:32:51;;;;;;;61.60;23.45;;;;;;;;;;6253036;28;20051;-60
2022/11/09 15:35:54;;;;;;;60.45;23.92;;;;;;;;;;6257635;28;20075;-59
2022/11/09 15:39:08;;;;;;;56.90;22.02;;;;;;;;;;6258666;28;20561;-61
2022/11/09 15:42:12;;;;;;;65.82;24.13;;;;;;;;;;6254794;28;20045;-59
2022/11/09 15:45:16;;;;;;;58.08;22.00;;;;;;;;;;6257574;28;20155;-59
2022/11/09 15:48:17;;;;;;;59.15;23.25;;;;;;;;;;6258495;28;20365;-60
2022/11/09 15:51:18;;;;;;;66.95;25.45;;;;;;;;;;6254753;28;20045;-62
2022/11/09 15:54:20;;;;;;;59.60;23.02;;;;;;;;;;6254874;28;20420;-59
2022/11/09 15:57:21;;;;;;;63.28;23.20;;;;;;;;;;6257801;28;20049;-60
2022/11/09 16:00:22;;;;;;;63.75;24.70;;;;;;;;;;6258001;28;20049;-60
2022/11/09 16:03:22;;;;;;;68.00;25.02;;;;;;;;;;6257453;28;20044;-60
2022/11/09 16:06:23;;;;;;;67.00;26.80;;;;;;;;;;6255703;28;20056;-59
2022/11/09 16:09:23;;;;;;;67.75;26.80;;;;;;;;;;6260280;28;20471;-59
2022/11/09 16:12:24;;;;;;;66.88;26.45;;;;;;;;;;6258352;28;22296;-60
2022/11/09 16:15:25;;;;;;;72.50;27.10;;;;;;;;;;6259131;28;20052;-60
2022/11/09 16:18:26;;;;;;;71.77;27.50;;;;;;;;;;6259664;28;20052;-60
2022/11/09 16:21:26;;;;;;;82.90;29.42;;;;;;;;;;6258012;28;20343;-60
2022/11/09 16:24:28;;;;;;;74.55;26.00;;;;;;;;;;6254965;28;20076;-58
2022/11/09 16:27:28;;;;;;;137.68;47.35;;;;;;;;;;6255216;28;20136;-59
2022/11/09 16:30:29;;;;;;;124.07;45.30;;;;;;;;;;6255916;28;20420;-59
2022/11/09 16:33:30;;;;;;;90.03;37.80;;;;;;;;;;6255105;28;20431;-59
2022/11/09 16:36:32;;;;;;;99.70;44.10;;;;;;;;;;6256989;28;20158;-59
2022/11/09 16:39:34;;;;;;;135.88;66.28;;;;;;;;;;6256799;28;20565;-60
2022/11/09 16:42:35;;;;;;;104.80;38.42;;;;;;;;;;6254832;28;20732;-60
2022/11/09 16:45:36;;;;;;;108.97;46.90;;;;;;;;;;6256325;28;20049;-61
2022/11/09 16:48:37;;;;;;;105.28;44.88;;;;;;;;;;6257472;28;20871;-60
2022/11/09 16:51:38;;;;;;;94.53;36.00;;;;;;;;;;6256860;28;20948;-61
2022/11/09 16:54:38;;;;;;;110.70;43.92;;;;;;;;;;6254840;28;20053;-59
2022/11/09 16:57:39;;;;;;;318.40;98.72;;;;;;;;;;6256565;28;20102;-59
2022/11/09 17:00:45;;;;;;;250.00;84.18;;;;;;;;;;6257121;28;20057;-59
2022/11/09 17:03:45;;;;;;;118.05;48.28;;;;;;;;;;6254837;28;20419;-60
2022/11/09 17:06:46;;;;;;;100.60;39.40;;;;;;;;;;6256451;28;20128;-60
2022/11/09 17:09:46;;;;;;;96.82;38.03;;;;;;;;;;6257362;28;20416;-60
2022/11/09 17:12:47;;;;;;;105.35;38.42;;;;;;;;;;6255405;28;20049;-59
2022/11/09 17:15:51;;;;;;;105.00;40.75;;;;;;;;;;6256425;28;20427;-59
2022/11/09 17:18:53;;;;;;;105.88;38.97;;;;;;;;;;6256781;28;20049;-57
2022/11/09 17:21:54;;;;;;;114.13;41.63;;;;;;;;;;6256237;28;20122;-59
2022/11/09 17:24:54;;;;;;;103.53;39.53;;;;;;;;;;6255480;28;20048;-60
2022/11/09 17:27:55;;;;;;;120.38;44.85;;;;;;;;;;6259269;28;20052;-63
2022/11/09 17:30:56;;;;;;;209.27;75.68;;;;;;;;;;6260157;28;20583;-60
2022/11/09 17:33:56;;;;;;;124.13;44.05;;;;;;;;;;6259304;28;20056;-59
2022/11/09 17:36:57;;;;;;;112.38;40.58;;;;;;;;;;6261721;28;20080;-60
2022/11/09 17:39:58;;;;;;;121.40;44.80;;;;;;;;;;6261831;28;20057;-57
2022/11/09 17:42:58;;;;;;;115.03;41.97;;;;;;;;;;6258612;28;20051;-59